<?xml version="1.0" encoding="UTF-8" standalone="no" ?>
<gpx xmlns="http://www.topografix.com/GPX/1/1" xmlns:xsi="http://www.w3.org/2001/XMLSchema-instance" xsi:schemaLocation="http://www.topografix.com/GPX/1/1 http://www.topografix.com/GPX/1/1/gpx.xsd" version="1.1" creator="VisuGPX - https://www.visugpx.com">
  <metadata>
    <name>Vallée de Chevreuse</name>
  </metadata>
  <wpt lat="48.70316" lon="2.07088">
    <ele>79.5</ele>
    <type><![CDATA[GENERIC]]></type>
  </wpt>
  <wpt lat="48.7032" lon="2.07089">
    <ele>78.9</ele>
    <type><![CDATA[GENERIC]]></type>
  </wpt>
  <trk>
    <name><![CDATA[Vallée de Chevreuse 2/3]]></name>
    <extensions>
      <line xmlns="http://www.topografix.com/GPX/gpx_style/0/2">
        <color>00FF00</color>
        <width>4</width>
        <dasharray>8</dasharray>
          <extensions>
            <sens>1</sens>
          </extensions>
      </line>
    </extensions>
    <trkseg>
      <trkpt lat="48.70631" lon="1.98194">
        <ele>151</ele>
        <time>2025-03-15T20:53:32.000Z</time>
      </trkpt>
      <trkpt lat="48.70617" lon="1.98135">
        <ele>152</ele>
        <time>2025-03-15T20:54:30.000Z</time>
      </trkpt>
      <trkpt lat="48.70614" lon="1.97751">
        <ele>157</ele>
        <time>2025-03-15T21:00:12.000Z</time>
      </trkpt>
      <trkpt lat="48.70565" lon="1.97737">
        <ele>158</ele>
        <time>2025-03-15T21:01:19.000Z</time>
      </trkpt>
      <trkpt lat="48.70538" lon="1.97685">
        <ele>159</ele>
        <time>2025-03-15T21:02:19.000Z</time>
      </trkpt>
      <trkpt lat="48.70502" lon="1.97572">
        <ele>160</ele>
        <time>2025-03-15T21:04:04.000Z</time>
      </trkpt>
      <trkpt lat="48.70485" lon="1.97357">
        <ele>162</ele>
        <time>2025-03-15T21:07:08.000Z</time>
      </trkpt>
      <trkpt lat="48.70477" lon="1.97324">
        <ele>163</ele>
        <time>2025-03-15T21:07:44.000Z</time>
      </trkpt>
      <trkpt lat="48.70481" lon="1.97223">
        <ele>164</ele>
        <time>2025-03-15T21:09:11.000Z</time>
      </trkpt>
      <trkpt lat="48.70398" lon="1.97253">
        <ele>160</ele>
        <time>2025-03-15T21:10:48.000Z</time>
      </trkpt>
      <trkpt lat="48.70376" lon="1.97306">
        <ele>155</ele>
        <time>2025-03-15T21:11:35.000Z</time>
      </trkpt>
      <trkpt lat="48.70341" lon="1.97338">
        <ele>142</ele>
        <time>2025-03-15T21:12:23.000Z</time>
      </trkpt>
      <trkpt lat="48.70327" lon="1.97348">
        <ele>137</ele>
        <time>2025-03-15T21:12:40.000Z</time>
      </trkpt>
      <trkpt lat="48.70319" lon="1.97387">
        <ele>133</ele>
        <time>2025-03-15T21:13:11.000Z</time>
      </trkpt>
      <trkpt lat="48.70292" lon="1.97371">
        <ele>122</ele>
        <time>2025-03-15T21:13:43.000Z</time>
      </trkpt>
      <trkpt lat="48.70269" lon="1.97394">
        <ele>116</ele>
        <time>2025-03-15T21:14:14.000Z</time>
      </trkpt>
      <trkpt lat="48.70219" lon="1.97381">
        <ele>107</ele>
        <time>2025-03-15T21:15:13.000Z</time>
      </trkpt>
      <trkpt lat="48.7019" lon="1.97447">
        <ele>105</ele>
        <time>2025-03-15T21:16:12.000Z</time>
      </trkpt>
      <trkpt lat="48.70162" lon="1.97437">
        <ele>106</ele>
        <time>2025-03-15T21:16:56.000Z</time>
      </trkpt>
      <trkpt lat="48.70083" lon="1.97302">
        <ele>111</ele>
        <time>2025-03-15T21:20:03.000Z</time>
      </trkpt>
      <trkpt lat="48.70031" lon="1.97168">
        <ele>118</ele>
        <time>2025-03-15T21:23:13.000Z</time>
      </trkpt>
      <trkpt lat="48.70002" lon="1.97048">
        <ele>126</ele>
        <time>2025-03-15T21:26:11.000Z</time>
      </trkpt>
      <trkpt lat="48.69987" lon="1.969">
        <ele>132</ele>
        <time>2025-03-15T21:29:06.000Z</time>
      </trkpt>
      <trkpt lat="48.69952" lon="1.96847">
        <ele>137</ele>
        <time>2025-03-15T21:30:54.000Z</time>
      </trkpt>
      <trkpt lat="48.69893" lon="1.96813">
        <ele>144</ele>
        <time>2025-03-15T21:33:18.000Z</time>
      </trkpt>
      <trkpt lat="48.69826" lon="1.96761">
        <ele>154</ele>
        <time>2025-03-15T21:36:27.000Z</time>
      </trkpt>
      <trkpt lat="48.69806" lon="1.96724">
        <ele>159</ele>
        <time>2025-03-15T21:37:55.000Z</time>
      </trkpt>
      <trkpt lat="48.69771" lon="1.96516">
        <ele>169</ele>
        <time>2025-03-15T21:42:20.000Z</time>
      </trkpt>
      <trkpt lat="48.69436" lon="1.95744">
        <ele>169</ele>
        <time>2025-03-15T21:53:58.000Z</time>
      </trkpt>
      <trkpt lat="48.69419" lon="1.95735">
        <ele>169</ele>
        <time>2025-03-15T21:54:18.000Z</time>
      </trkpt>
      <trkpt lat="48.69392" lon="1.95753">
        <ele>169</ele>
        <time>2025-03-15T21:54:51.000Z</time>
      </trkpt>
      <trkpt lat="48.69379" lon="1.95802">
        <ele>169</ele>
        <time>2025-03-15T21:55:31.000Z</time>
      </trkpt>
      <trkpt lat="48.69374" lon="1.95858">
        <ele>167</ele>
        <time>2025-03-15T21:56:14.000Z</time>
      </trkpt>
      <trkpt lat="48.69363" lon="1.95891">
        <ele>168</ele>
        <time>2025-03-15T21:56:52.000Z</time>
      </trkpt>
      <trkpt lat="48.69219" lon="1.95947">
        <ele>169</ele>
        <time>2025-03-15T21:59:52.000Z</time>
      </trkpt>
      <trkpt lat="48.69038" lon="1.96092">
        <ele>171</ele>
        <time>2025-03-15T22:04:07.000Z</time>
      </trkpt>
      <trkpt lat="48.69033" lon="1.9612">
        <ele>169</ele>
        <time>2025-03-15T22:04:29.000Z</time>
      </trkpt>
      <trkpt lat="48.69042" lon="1.96188">
        <ele>164</ele>
        <time>2025-03-15T22:05:22.000Z</time>
      </trkpt>
      <trkpt lat="48.69015" lon="1.96251">
        <ele>155</ele>
        <time>2025-03-15T22:06:19.000Z</time>
      </trkpt>
      <trkpt lat="48.69011" lon="1.96315">
        <ele>150</ele>
        <time>2025-03-15T22:07:08.000Z</time>
      </trkpt>
      <trkpt lat="48.69012" lon="1.96345">
        <ele>148</ele>
        <time>2025-03-15T22:07:31.000Z</time>
      </trkpt>
      <trkpt lat="48.68994" lon="1.96349">
        <ele>144</ele>
        <time>2025-03-15T22:07:52.000Z</time>
      </trkpt>
      <trkpt lat="48.68953" lon="1.96236">
        <ele>135</ele>
        <time>2025-03-15T22:09:30.000Z</time>
      </trkpt>
      <trkpt lat="48.6887" lon="1.96266">
        <ele>129</ele>
        <time>2025-03-15T22:11:08.000Z</time>
      </trkpt>
      <trkpt lat="48.68844" lon="1.96246">
        <ele>133</ele>
        <time>2025-03-15T22:12:23.000Z</time>
      </trkpt>
      <trkpt lat="48.68788" lon="1.96327">
        <ele>131</ele>
        <time>2025-03-15T22:13:51.000Z</time>
      </trkpt>
      <trkpt lat="48.68703" lon="1.96271">
        <ele>140</ele>
        <time>2025-03-15T22:17:10.000Z</time>
      </trkpt>
      <trkpt lat="48.68657" lon="1.96252">
        <ele>147</ele>
        <time>2025-03-15T22:19:16.000Z</time>
      </trkpt>
      <trkpt lat="48.6862" lon="1.96187">
        <ele>161</ele>
        <time>2025-03-15T22:22:45.000Z</time>
      </trkpt>
      <trkpt lat="48.68656" lon="1.96074">
        <ele>172</ele>
        <time>2025-03-15T22:26:13.000Z</time>
      </trkpt>
      <trkpt lat="48.6866" lon="1.95991">
        <ele>171</ele>
        <time>2025-03-15T22:27:15.000Z</time>
      </trkpt>
      <trkpt lat="48.68561" lon="1.95886">
        <ele>167</ele>
        <time>2025-03-15T22:29:33.000Z</time>
      </trkpt>
      <trkpt lat="48.68551" lon="1.95939">
        <ele>166</ele>
        <time>2025-03-15T22:30:15.000Z</time>
      </trkpt>
      <trkpt lat="48.68531" lon="1.95983">
        <ele>163</ele>
        <time>2025-03-15T22:30:55.000Z</time>
      </trkpt>
      <trkpt lat="48.68531" lon="1.96014">
        <ele>163</ele>
        <time>2025-03-15T22:31:19.000Z</time>
      </trkpt>
      <trkpt lat="48.68508" lon="1.96065">
        <ele>158</ele>
        <time>2025-03-15T22:32:05.000Z</time>
      </trkpt>
      <trkpt lat="48.68475" lon="1.961">
        <ele>151</ele>
        <time>2025-03-15T22:32:52.000Z</time>
      </trkpt>
      <trkpt lat="48.68311" lon="1.96153">
        <ele>165</ele>
        <time>2025-03-15T22:38:27.000Z</time>
      </trkpt>
      <trkpt lat="48.68183" lon="1.96231">
        <ele>166</ele>
        <time>2025-03-15T22:41:16.000Z</time>
      </trkpt>
      <trkpt lat="48.68129" lon="1.96267">
        <ele>163</ele>
        <time>2025-03-15T22:42:23.000Z</time>
      </trkpt>
      <trkpt lat="48.67908" lon="1.96309">
        <ele>167</ele>
        <time>2025-03-15T22:47:19.000Z</time>
      </trkpt>
      <trkpt lat="48.67839" lon="1.96272">
        <ele>169</ele>
        <time>2025-03-15T22:49:04.000Z</time>
      </trkpt>
      <trkpt lat="48.678" lon="1.96207">
        <ele>166</ele>
        <time>2025-03-15T22:50:11.000Z</time>
      </trkpt>
      <trkpt lat="48.67778" lon="1.96156">
        <ele>163</ele>
        <time>2025-03-15T22:50:57.000Z</time>
      </trkpt>
      <trkpt lat="48.67816" lon="1.96034">
        <ele>161</ele>
        <time>2025-03-15T22:52:39.000Z</time>
      </trkpt>
      <trkpt lat="48.67884" lon="1.95924">
        <ele>167</ele>
        <time>2025-03-15T22:55:35.000Z</time>
      </trkpt>
      <trkpt lat="48.67969" lon="1.95657">
        <ele>167</ele>
        <time>2025-03-15T22:59:19.000Z</time>
      </trkpt>
      <trkpt lat="48.68041" lon="1.95458">
        <ele>167</ele>
        <time>2025-03-15T23:02:11.000Z</time>
      </trkpt>
      <trkpt lat="48.68049" lon="1.95377">
        <ele>166</ele>
        <time>2025-03-15T23:03:13.000Z</time>
      </trkpt>
      <trkpt lat="48.68134" lon="1.95162">
        <ele>165</ele>
        <time>2025-03-15T23:06:22.000Z</time>
      </trkpt>
      <trkpt lat="48.68131" lon="1.95093">
        <ele>162</ele>
        <time>2025-03-15T23:07:15.000Z</time>
      </trkpt>
      <trkpt lat="48.68184" lon="1.94985">
        <ele>163</ele>
        <time>2025-03-15T23:09:07.000Z</time>
      </trkpt>
      <trkpt lat="48.68231" lon="1.94932">
        <ele>163</ele>
        <time>2025-03-15T23:10:14.000Z</time>
      </trkpt>
      <trkpt lat="48.6831" lon="1.94872">
        <ele>164</ele>
        <time>2025-03-15T23:12:05.000Z</time>
      </trkpt>
      <trkpt lat="48.68508" lon="1.94427">
        <ele>171</ele>
        <time>2025-03-15T23:20:03.000Z</time>
      </trkpt>
      <trkpt lat="48.68737" lon="1.93905">
        <ele>169</ele>
        <time>2025-03-15T23:27:56.000Z</time>
      </trkpt>
      <trkpt lat="48.68711" lon="1.93928">
        <ele>168</ele>
        <time>2025-03-15T23:28:30.000Z</time>
      </trkpt>
      <trkpt lat="48.68675" lon="1.93917">
        <ele>167</ele>
        <time>2025-03-15T23:29:12.000Z</time>
      </trkpt>
      <trkpt lat="48.68638" lon="1.93895">
        <ele>165</ele>
        <time>2025-03-15T23:29:57.000Z</time>
      </trkpt>
      <trkpt lat="48.68622" lon="1.93905">
        <ele>166</ele>
        <time>2025-03-15T23:30:27.000Z</time>
      </trkpt>
      <trkpt lat="48.68562" lon="1.93937">
        <ele>162</ele>
        <time>2025-03-15T23:31:41.000Z</time>
      </trkpt>
      <trkpt lat="48.68535" lon="1.93979">
        <ele>162</ele>
        <time>2025-03-15T23:32:25.000Z</time>
      </trkpt>
      <trkpt lat="48.68488" lon="1.94025">
        <ele>161</ele>
        <time>2025-03-15T23:33:28.000Z</time>
      </trkpt>
      <trkpt lat="48.68471" lon="1.93988">
        <ele>153</ele>
        <time>2025-03-15T23:34:02.000Z</time>
      </trkpt>
      <trkpt lat="48.6845" lon="1.9398">
        <ele>146</ele>
        <time>2025-03-15T23:34:26.000Z</time>
      </trkpt>
      <trkpt lat="48.68453" lon="1.93938">
        <ele>136</ele>
        <time>2025-03-15T23:34:58.000Z</time>
      </trkpt>
      <trkpt lat="48.68486" lon="1.93892">
        <ele>140</ele>
        <time>2025-03-15T23:36:30.000Z</time>
      </trkpt>
      <trkpt lat="48.68529" lon="1.93865">
        <ele>145</ele>
        <time>2025-03-15T23:38:15.000Z</time>
      </trkpt>
      <trkpt lat="48.68553" lon="1.93817">
        <ele>147</ele>
        <time>2025-03-15T23:39:22.000Z</time>
      </trkpt>
      <trkpt lat="48.68598" lon="1.93774">
        <ele>145</ele>
        <time>2025-03-15T23:40:23.000Z</time>
      </trkpt>
      <trkpt lat="48.68593" lon="1.93748">
        <ele>142</ele>
        <time>2025-03-15T23:40:43.000Z</time>
      </trkpt>
      <trkpt lat="48.68572" lon="1.93734">
        <ele>137</ele>
        <time>2025-03-15T23:41:10.000Z</time>
      </trkpt>
      <trkpt lat="48.68552" lon="1.93714">
        <ele>132</ele>
        <time>2025-03-15T23:41:37.000Z</time>
      </trkpt>
      <trkpt lat="48.68525" lon="1.93718">
        <ele>127</ele>
        <time>2025-03-15T23:42:08.000Z</time>
      </trkpt>
      <trkpt lat="48.6851" lon="1.93707">
        <ele>122</ele>
        <time>2025-03-15T23:42:28.000Z</time>
      </trkpt>
      <trkpt lat="48.68523" lon="1.93632">
        <ele>121</ele>
        <time>2025-03-15T23:43:27.000Z</time>
      </trkpt>
      <trkpt lat="48.68557" lon="1.93551">
        <ele>123</ele>
        <time>2025-03-15T23:45:00.000Z</time>
      </trkpt>
      <trkpt lat="48.68569" lon="1.93483">
        <ele>125</ele>
        <time>2025-03-15T23:46:14.000Z</time>
      </trkpt>
      <trkpt lat="48.68607" lon="1.93431">
        <ele>131</ele>
        <time>2025-03-15T23:48:14.000Z</time>
      </trkpt>
      <trkpt lat="48.68636" lon="1.93382">
        <ele>132</ele>
        <time>2025-03-15T23:49:15.000Z</time>
      </trkpt>
      <trkpt lat="48.68664" lon="1.93365">
        <ele>131</ele>
        <time>2025-03-15T23:49:49.000Z</time>
      </trkpt>
      <trkpt lat="48.68664" lon="1.93334">
        <ele>129</ele>
        <time>2025-03-15T23:50:13.000Z</time>
      </trkpt>
      <trkpt lat="48.68642" lon="1.93264">
        <ele>130</ele>
        <time>2025-03-15T23:51:21.000Z</time>
      </trkpt>
      <trkpt lat="48.68644" lon="1.9321">
        <ele>131</ele>
        <time>2025-03-15T23:52:12.000Z</time>
      </trkpt>
      <trkpt lat="48.68666" lon="1.93112">
        <ele>131</ele>
        <time>2025-03-15T23:53:30.000Z</time>
      </trkpt>
      <trkpt lat="48.68668" lon="1.93022">
        <ele>129</ele>
        <time>2025-03-15T23:54:38.000Z</time>
      </trkpt>
      <trkpt lat="48.68683" lon="1.92954">
        <ele>126</ele>
        <time>2025-03-15T23:55:33.000Z</time>
      </trkpt>
      <trkpt lat="48.68769" lon="1.92761">
        <ele>130</ele>
        <time>2025-03-15T23:59:09.000Z</time>
      </trkpt>
      <trkpt lat="48.68793" lon="1.92669">
        <ele>128</ele>
        <time>2025-03-16T00:00:24.000Z</time>
      </trkpt>
      <trkpt lat="48.68846" lon="1.92601">
        <ele>128</ele>
        <time>2025-03-16T00:01:44.000Z</time>
      </trkpt>
      <trkpt lat="48.68899" lon="1.92663">
        <ele>138</ele>
        <time>2025-03-16T00:04:43.000Z</time>
      </trkpt>
      <trkpt lat="48.68981" lon="1.92782">
        <ele>148</ele>
        <time>2025-03-16T00:08:35.000Z</time>
      </trkpt>
      <trkpt lat="48.69015" lon="1.92805">
        <ele>150</ele>
        <time>2025-03-16T00:09:39.000Z</time>
      </trkpt>
      <trkpt lat="48.69045" lon="1.92794">
        <ele>155</ele>
        <time>2025-03-16T00:11:06.000Z</time>
      </trkpt>
      <trkpt lat="48.69071" lon="1.92771">
        <ele>156</ele>
        <time>2025-03-16T00:11:51.000Z</time>
      </trkpt>
      <trkpt lat="48.69181" lon="1.92753">
        <ele>162</ele>
        <time>2025-03-16T00:15:00.000Z</time>
      </trkpt>
      <trkpt lat="48.6914" lon="1.92677">
        <ele>167</ele>
        <time>2025-03-16T00:17:06.000Z</time>
      </trkpt>
      <trkpt lat="48.69048" lon="1.92617">
        <ele>167</ele>
        <time>2025-03-16T00:19:01.000Z</time>
      </trkpt>
      <trkpt lat="48.69033" lon="1.92576">
        <ele>166</ele>
        <time>2025-03-16T00:19:36.000Z</time>
      </trkpt>
      <trkpt lat="48.69064" lon="1.92508">
        <ele>167</ele>
        <time>2025-03-16T00:20:48.000Z</time>
      </trkpt>
      <trkpt lat="48.69098" lon="1.92381">
        <ele>165</ele>
        <time>2025-03-16T00:22:32.000Z</time>
      </trkpt>
      <trkpt lat="48.69122" lon="1.92307">
        <ele>161</ele>
        <time>2025-03-16T00:23:35.000Z</time>
      </trkpt>
      <trkpt lat="48.69116" lon="1.92253">
        <ele>158</ele>
        <time>2025-03-16T00:24:16.000Z</time>
      </trkpt>
      <trkpt lat="48.69128" lon="1.92152">
        <ele>169</ele>
        <time>2025-03-16T00:27:26.000Z</time>
      </trkpt>
      <trkpt lat="48.69142" lon="1.92081">
        <ele>169</ele>
        <time>2025-03-16T00:28:22.000Z</time>
      </trkpt>
      <trkpt lat="48.69174" lon="1.92036">
        <ele>166</ele>
        <time>2025-03-16T00:29:12.000Z</time>
      </trkpt>
      <trkpt lat="48.69242" lon="1.92041">
        <ele>163</ele>
        <time>2025-03-16T00:30:30.000Z</time>
      </trkpt>
      <trkpt lat="48.69275" lon="1.92012">
        <ele>167</ele>
        <time>2025-03-16T00:31:55.000Z</time>
      </trkpt>
      <trkpt lat="48.69305" lon="1.91872">
        <ele>170</ele>
        <time>2025-03-16T00:34:17.000Z</time>
      </trkpt>
      <trkpt lat="48.69323" lon="1.91788">
        <ele>170</ele>
        <time>2025-03-16T00:35:24.000Z</time>
      </trkpt>
      <trkpt lat="48.6935" lon="1.9173">
        <ele>168</ele>
        <time>2025-03-16T00:36:17.000Z</time>
      </trkpt>
      <trkpt lat="48.6936" lon="1.9167">
        <ele>158</ele>
        <time>2025-03-16T00:37:04.000Z</time>
      </trkpt>
      <trkpt lat="48.6941" lon="1.91696">
        <ele>149</ele>
        <time>2025-03-16T00:38:05.000Z</time>
      </trkpt>
      <trkpt lat="48.69405" lon="1.91653">
        <ele>143</ele>
        <time>2025-03-16T00:38:38.000Z</time>
      </trkpt>
      <trkpt lat="48.69423" lon="1.91578">
        <ele>136</ele>
        <time>2025-03-16T00:39:39.000Z</time>
      </trkpt>
      <trkpt lat="48.6949" lon="1.91647">
        <ele>154</ele>
        <time>2025-03-16T00:44:17.000Z</time>
      </trkpt>
      <trkpt lat="48.69501" lon="1.91594">
        <ele>158</ele>
        <time>2025-03-16T00:45:41.000Z</time>
      </trkpt>
      <trkpt lat="48.69633" lon="1.91573">
        <ele>175</ele>
        <time>2025-03-16T00:51:07.000Z</time>
      </trkpt>
      <trkpt lat="48.69795" lon="1.91748">
        <ele>175</ele>
        <time>2025-03-16T00:54:55.000Z</time>
      </trkpt>
      <trkpt lat="48.69857" lon="1.91773">
        <ele>174</ele>
        <time>2025-03-16T00:56:09.000Z</time>
      </trkpt>
      <trkpt lat="48.69936" lon="1.91752">
        <ele>174</ele>
        <time>2025-03-16T00:57:40.000Z</time>
      </trkpt>
      <trkpt lat="48.70018" lon="1.91505">
        <ele>174</ele>
        <time>2025-03-16T01:01:09.000Z</time>
      </trkpt>
      <trkpt lat="48.69987" lon="1.9148">
        <ele>171</ele>
        <time>2025-03-16T01:01:49.000Z</time>
      </trkpt>
      <trkpt lat="48.69957" lon="1.91462">
        <ele>163</ele>
        <time>2025-03-16T01:02:26.000Z</time>
      </trkpt>
      <trkpt lat="48.69927" lon="1.91443">
        <ele>155</ele>
        <time>2025-03-16T01:03:04.000Z</time>
      </trkpt>
      <trkpt lat="48.69912" lon="1.91408">
        <ele>150</ele>
        <time>2025-03-16T01:03:35.000Z</time>
      </trkpt>
      <trkpt lat="48.69906" lon="1.91363">
        <ele>144</ele>
        <time>2025-03-16T01:04:10.000Z</time>
      </trkpt>
      <trkpt lat="48.6987" lon="1.91355">
        <ele>129</ele>
        <time>2025-03-16T01:04:51.000Z</time>
      </trkpt>
      <trkpt lat="48.69881" lon="1.91299">
        <ele>131</ele>
        <time>2025-03-16T01:05:56.000Z</time>
      </trkpt>
      <trkpt lat="48.69879" lon="1.91242">
        <ele>129</ele>
        <time>2025-03-16T01:06:39.000Z</time>
      </trkpt>
      <trkpt lat="48.69925" lon="1.91211">
        <ele>132</ele>
        <time>2025-03-16T01:08:07.000Z</time>
      </trkpt>
      <trkpt lat="48.69934" lon="1.91076">
        <ele>133</ele>
        <time>2025-03-16T01:10:00.000Z</time>
      </trkpt>
      <trkpt lat="48.69963" lon="1.90858">
        <ele>134</ele>
        <time>2025-03-16T01:12:59.000Z</time>
      </trkpt>
      <trkpt lat="48.70032" lon="1.90705">
        <ele>133</ele>
        <time>2025-03-16T01:15:19.000Z</time>
      </trkpt>
      <trkpt lat="48.70067" lon="1.9068">
        <ele>135</ele>
        <time>2025-03-16T01:16:24.000Z</time>
      </trkpt>
      <trkpt lat="48.70067" lon="1.9063">
        <ele>135</ele>
        <time>2025-03-16T01:17:02.000Z</time>
      </trkpt>
      <trkpt lat="48.70043" lon="1.90562">
        <ele>136</ele>
        <time>2025-03-16T01:18:11.000Z</time>
      </trkpt>
      <trkpt lat="48.70032" lon="1.90521">
        <ele>135</ele>
        <time>2025-03-16T01:18:44.000Z</time>
      </trkpt>
      <trkpt lat="48.70022" lon="1.90424">
        <ele>136</ele>
        <time>2025-03-16T01:20:09.000Z</time>
      </trkpt>
      <trkpt lat="48.70007" lon="1.90368">
        <ele>136</ele>
        <time>2025-03-16T01:20:54.000Z</time>
      </trkpt>
      <trkpt lat="48.70002" lon="1.90246">
        <ele>135</ele>
        <time>2025-03-16T01:22:27.000Z</time>
      </trkpt>
      <trkpt lat="48.70015" lon="1.90098">
        <ele>138</ele>
        <time>2025-03-16T01:24:50.000Z</time>
      </trkpt>
      <trkpt lat="48.70004" lon="1.90004">
        <ele>136</ele>
        <time>2025-03-16T01:26:02.000Z</time>
      </trkpt>
      <trkpt lat="48.70008" lon="1.89941">
        <ele>136</ele>
        <time>2025-03-16T01:26:50.000Z</time>
      </trkpt>
      <trkpt lat="48.7001" lon="1.89896">
        <ele>136</ele>
        <time>2025-03-16T01:27:24.000Z</time>
      </trkpt>
      <trkpt lat="48.70089" lon="1.89842">
        <ele>138</ele>
        <time>2025-03-16T01:29:24.000Z</time>
      </trkpt>
      <trkpt lat="48.70096" lon="1.89772">
        <ele>137</ele>
        <time>2025-03-16T01:30:17.000Z</time>
      </trkpt>
      <trkpt lat="48.70125" lon="1.89741">
        <ele>137</ele>
        <time>2025-03-16T01:30:58.000Z</time>
      </trkpt>
      <trkpt lat="48.70169" lon="1.89725">
        <ele>137</ele>
        <time>2025-03-16T01:31:49.000Z</time>
      </trkpt>
      <trkpt lat="48.70185" lon="1.89722">
        <ele>138</ele>
        <time>2025-03-16T01:32:18.000Z</time>
      </trkpt>
      <trkpt lat="48.70269" lon="1.89589">
        <ele>140</ele>
        <time>2025-03-16T01:34:58.000Z</time>
      </trkpt>
      <trkpt lat="48.70314" lon="1.89556">
        <ele>138</ele>
        <time>2025-03-16T01:35:56.000Z</time>
      </trkpt>
      <trkpt lat="48.70339" lon="1.89501">
        <ele>140</ele>
        <time>2025-03-16T01:37:07.000Z</time>
      </trkpt>
      <trkpt lat="48.70321" lon="1.8945">
        <ele>140</ele>
        <time>2025-03-16T01:37:50.000Z</time>
      </trkpt>
      <trkpt lat="48.70298" lon="1.89408">
        <ele>138</ele>
        <time>2025-03-16T01:38:32.000Z</time>
      </trkpt>
      <trkpt lat="48.70293" lon="1.89345">
        <ele>138</ele>
        <time>2025-03-16T01:39:19.000Z</time>
      </trkpt>
      <trkpt lat="48.70183" lon="1.89189">
        <ele>140</ele>
        <time>2025-03-16T01:42:33.000Z</time>
      </trkpt>
      <trkpt lat="48.70235" lon="1.88959">
        <ele>139</ele>
        <time>2025-03-16T01:45:36.000Z</time>
      </trkpt>
      <trkpt lat="48.70227" lon="1.8877">
        <ele>143</ele>
        <time>2025-03-16T01:48:40.000Z</time>
      </trkpt>
      <trkpt lat="48.7023" lon="1.88709">
        <ele>145</ele>
        <time>2025-03-16T01:49:47.000Z</time>
      </trkpt>
      <trkpt lat="48.70252" lon="1.88523">
        <ele>148</ele>
        <time>2025-03-16T01:52:40.000Z</time>
      </trkpt>
      <trkpt lat="48.70241" lon="1.88499">
        <ele>148</ele>
        <time>2025-03-16T01:53:02.000Z</time>
      </trkpt>
      <trkpt lat="48.70226" lon="1.88496">
        <ele>148</ele>
        <time>2025-03-16T01:53:19.000Z</time>
      </trkpt>
      <trkpt lat="48.7012" lon="1.88437">
        <ele>149</ele>
        <time>2025-03-16T01:55:38.000Z</time>
      </trkpt>
      <trkpt lat="48.70096" lon="1.88452">
        <ele>150</ele>
        <time>2025-03-16T01:56:19.000Z</time>
      </trkpt>
      <trkpt lat="48.70056" lon="1.88355">
        <ele>145</ele>
        <time>2025-03-16T01:57:45.000Z</time>
      </trkpt>
      <trkpt lat="48.7" lon="1.8815">
        <ele>144</ele>
        <time>2025-03-16T02:00:33.000Z</time>
      </trkpt>
      <trkpt lat="48.69913" lon="1.88076">
        <ele>145</ele>
        <time>2025-03-16T02:02:37.000Z</time>
      </trkpt>
      <trkpt lat="48.69883" lon="1.87991">
        <ele>146</ele>
        <time>2025-03-16T02:04:00.000Z</time>
      </trkpt>
      <trkpt lat="48.69848" lon="1.87964">
        <ele>146</ele>
        <time>2025-03-16T02:04:45.000Z</time>
      </trkpt>
      <trkpt lat="48.69838" lon="1.87914">
        <ele>147</ele>
        <time>2025-03-16T02:05:35.000Z</time>
      </trkpt>
      <trkpt lat="48.69802" lon="1.87618">
        <ele>151</ele>
        <time>2025-03-16T02:10:03.000Z</time>
      </trkpt>
      <trkpt lat="48.69744" lon="1.87532">
        <ele>154</ele>
        <time>2025-03-16T02:12:07.000Z</time>
      </trkpt>
      <trkpt lat="48.6972" lon="1.87447">
        <ele>156</ele>
        <time>2025-03-16T02:13:37.000Z</time>
      </trkpt>
      <trkpt lat="48.69697" lon="1.87296">
        <ele>158</ele>
        <time>2025-03-16T02:15:55.000Z</time>
      </trkpt>
      <trkpt lat="48.69646" lon="1.87096">
        <ele>159</ele>
        <time>2025-03-16T02:18:47.000Z</time>
      </trkpt>
      <trkpt lat="48.69585" lon="1.87006">
        <ele>160</ele>
        <time>2025-03-16T02:20:34.000Z</time>
      </trkpt>
      <trkpt lat="48.69477" lon="1.86942">
        <ele>162</ele>
        <time>2025-03-16T02:23:08.000Z</time>
      </trkpt>
      <trkpt lat="48.69416" lon="1.86761">
        <ele>167</ele>
        <time>2025-03-16T02:26:33.000Z</time>
      </trkpt>
      <trkpt lat="48.69428" lon="1.86703">
        <ele>167</ele>
        <time>2025-03-16T02:27:19.000Z</time>
      </trkpt>
      <trkpt lat="48.69442" lon="1.86619">
        <ele>168</ele>
        <time>2025-03-16T02:28:35.000Z</time>
      </trkpt>
      <trkpt lat="48.6949" lon="1.86516">
        <ele>167</ele>
        <time>2025-03-16T02:30:10.000Z</time>
      </trkpt>
      <trkpt lat="48.69535" lon="1.86528">
        <ele>168</ele>
        <time>2025-03-16T02:31:13.000Z</time>
      </trkpt>
      <trkpt lat="48.69593" lon="1.86483">
        <ele>172</ele>
        <time>2025-03-16T02:33:08.000Z</time>
      </trkpt>
      <trkpt lat="48.69396" lon="1.86425">
        <ele>173</ele>
        <time>2025-03-16T02:37:08.000Z</time>
      </trkpt>
      <trkpt lat="48.69249" lon="1.86843">
        <ele>173</ele>
        <time>2025-03-16T02:43:07.000Z</time>
      </trkpt>
      <trkpt lat="48.68918" lon="1.86869">
        <ele>172</ele>
        <time>2025-03-16T02:49:26.000Z</time>
      </trkpt>
      <trkpt lat="48.68903" lon="1.86846">
        <ele>173</ele>
        <time>2025-03-16T02:50:00.000Z</time>
      </trkpt>
      <trkpt lat="48.68896" lon="1.86815">
        <ele>173</ele>
        <time>2025-03-16T02:50:25.000Z</time>
      </trkpt>
      <trkpt lat="48.68882" lon="1.86799">
        <ele>173</ele>
        <time>2025-03-16T02:50:46.000Z</time>
      </trkpt>
      <trkpt lat="48.68687" lon="1.86865">
        <ele>171</ele>
        <time>2025-03-16T02:54:35.000Z</time>
      </trkpt>
      <trkpt lat="48.68664" lon="1.86875">
        <ele>171</ele>
        <time>2025-03-16T02:55:03.000Z</time>
      </trkpt>
      <trkpt lat="48.68552" lon="1.86908">
        <ele>171</ele>
        <time>2025-03-16T02:57:13.000Z</time>
      </trkpt>
      <trkpt lat="48.68075" lon="1.87064">
        <ele>170</ele>
        <time>2025-03-16T03:06:33.000Z</time>
      </trkpt>
      <trkpt lat="48.68046" lon="1.87088">
        <ele>170</ele>
        <time>2025-03-16T03:07:10.000Z</time>
      </trkpt>
      <trkpt lat="48.67909" lon="1.87124">
        <ele>170</ele>
        <time>2025-03-16T03:09:50.000Z</time>
      </trkpt>
      <trkpt lat="48.67739" lon="1.8714">
        <ele>170</ele>
        <time>2025-03-16T03:13:05.000Z</time>
      </trkpt>
      <trkpt lat="48.67737" lon="1.87112">
        <ele>170</ele>
        <time>2025-03-16T03:13:26.000Z</time>
      </trkpt>
      <trkpt lat="48.67687" lon="1.87125">
        <ele>170</ele>
        <time>2025-03-16T03:14:25.000Z</time>
      </trkpt>
      <trkpt lat="48.6765" lon="1.87119">
        <ele>170</ele>
        <time>2025-03-16T03:15:07.000Z</time>
      </trkpt>
      <trkpt lat="48.67493" lon="1.8707">
        <ele>170</ele>
        <time>2025-03-16T03:18:11.000Z</time>
      </trkpt>
      <trkpt lat="48.67478" lon="1.87057">
        <ele>171</ele>
        <time>2025-03-16T03:18:41.000Z</time>
      </trkpt>
      <trkpt lat="48.67475" lon="1.87087">
        <ele>170</ele>
        <time>2025-03-16T03:19:04.000Z</time>
      </trkpt>
      <trkpt lat="48.67266" lon="1.8702">
        <ele>167</ele>
        <time>2025-03-16T03:23:09.000Z</time>
      </trkpt>
      <trkpt lat="48.66956" lon="1.87237">
        <ele>170</ele>
        <time>2025-03-16T03:30:11.000Z</time>
      </trkpt>
      <trkpt lat="48.66951" lon="1.8722">
        <ele>168</ele>
        <time>2025-03-16T03:30:25.000Z</time>
      </trkpt>
      <trkpt lat="48.66454" lon="1.87453">
        <ele>170</ele>
        <time>2025-03-16T03:40:41.000Z</time>
      </trkpt>
      <trkpt lat="48.66441" lon="1.87418">
        <ele>169</ele>
        <time>2025-03-16T03:41:11.000Z</time>
      </trkpt>
      <trkpt lat="48.66417" lon="1.87481">
        <ele>169</ele>
        <time>2025-03-16T03:42:06.000Z</time>
      </trkpt>
      <trkpt lat="48.66289" lon="1.87544">
        <ele>168</ele>
        <time>2025-03-16T03:44:39.000Z</time>
      </trkpt>
      <trkpt lat="48.66311" lon="1.87697">
        <ele>170</ele>
        <time>2025-03-16T03:46:58.000Z</time>
      </trkpt>
      <trkpt lat="48.66167" lon="1.87993">
        <ele>168</ele>
        <time>2025-03-16T03:51:36.000Z</time>
      </trkpt>
      <trkpt lat="48.66106" lon="1.87993">
        <ele>167</ele>
        <time>2025-03-16T03:52:46.000Z</time>
      </trkpt>
      <trkpt lat="48.66065" lon="1.88036">
        <ele>167</ele>
        <time>2025-03-16T03:53:43.000Z</time>
      </trkpt>
      <trkpt lat="48.6603" lon="1.88038">
        <ele>167</ele>
        <time>2025-03-16T03:54:23.000Z</time>
      </trkpt>
      <trkpt lat="48.65987" lon="1.88034">
        <ele>168</ele>
        <time>2025-03-16T03:55:22.000Z</time>
      </trkpt>
      <trkpt lat="48.65959" lon="1.88058">
        <ele>168</ele>
        <time>2025-03-16T03:55:59.000Z</time>
      </trkpt>
      <trkpt lat="48.65938" lon="1.8814">
        <ele>168</ele>
        <time>2025-03-16T03:57:06.000Z</time>
      </trkpt>
      <trkpt lat="48.65919" lon="1.88263">
        <ele>168</ele>
        <time>2025-03-16T03:58:41.000Z</time>
      </trkpt>
      <trkpt lat="48.65912" lon="1.88339">
        <ele>168</ele>
        <time>2025-03-16T03:59:39.000Z</time>
      </trkpt>
      <trkpt lat="48.65898" lon="1.88416">
        <ele>169</ele>
        <time>2025-03-16T04:00:50.000Z</time>
      </trkpt>
      <trkpt lat="48.65873" lon="1.88451">
        <ele>168</ele>
        <time>2025-03-16T04:01:29.000Z</time>
      </trkpt>
      <trkpt lat="48.6574" lon="1.88517">
        <ele>168</ele>
        <time>2025-03-16T04:04:09.000Z</time>
      </trkpt>
      <trkpt lat="48.65685" lon="1.88527">
        <ele>167</ele>
        <time>2025-03-16T04:05:13.000Z</time>
      </trkpt>
      <trkpt lat="48.65574" lon="1.8852">
        <ele>168</ele>
        <time>2025-03-16T04:07:30.000Z</time>
      </trkpt>
      <trkpt lat="48.65441" lon="1.88466">
        <ele>168</ele>
        <time>2025-03-16T04:10:08.000Z</time>
      </trkpt>
      <trkpt lat="48.65451" lon="1.88506">
        <ele>169</ele>
        <time>2025-03-16T04:10:50.000Z</time>
      </trkpt>
      <trkpt lat="48.65444" lon="1.88526">
        <ele>169</ele>
        <time>2025-03-16T04:11:07.000Z</time>
      </trkpt>
      <trkpt lat="48.65429" lon="1.88579">
        <ele>168</ele>
        <time>2025-03-16T04:11:51.000Z</time>
      </trkpt>
      <trkpt lat="48.654" lon="1.8878">
        <ele>169</ele>
        <time>2025-03-16T04:14:37.000Z</time>
      </trkpt>
      <trkpt lat="48.65304" lon="1.89366">
        <ele>170</ele>
        <time>2025-03-16T04:22:24.000Z</time>
      </trkpt>
      <trkpt lat="48.65193" lon="1.9005">
        <ele>174</ele>
        <time>2025-03-16T04:31:58.000Z</time>
      </trkpt>
      <trkpt lat="48.64914" lon="1.90639">
        <ele>172</ele>
        <time>2025-03-16T04:41:06.000Z</time>
      </trkpt>
      <trkpt lat="48.65288" lon="1.91052">
        <ele>173</ele>
        <time>2025-03-16T04:50:06.000Z</time>
      </trkpt>
      <trkpt lat="48.6495" lon="1.91812">
        <ele>173</ele>
        <time>2025-03-16T05:01:38.000Z</time>
      </trkpt>
      <trkpt lat="48.65623" lon="1.92552">
        <ele>168</ele>
        <time>2025-03-16T05:17:30.000Z</time>
      </trkpt>
      <trkpt lat="48.65647" lon="1.92999">
        <ele>168</ele>
        <time>2025-03-16T05:23:09.000Z</time>
      </trkpt>
      <trkpt lat="48.65637" lon="1.93045">
        <ele>166.1</ele>
        <time>2025-03-16T05:24:06.000Z</time>
        <extensions>
          <visugpx:TrkExtension xmlns:visugpx="https://www.visugpx.com/editgpx/">
            <visugpx:node>1</visugpx:node>
            </visugpx:TrkExtension>
        </extensions>
      </trkpt>
    </trkseg>
  </trk>
</gpx>